createdAt,value
2023-05-14T00:01:28.458Z,13.41
2023-05-14T00:03:56.937Z,13.42
2023-05-14T00:06:24.818Z,13.36
2023-05-14T00:08:53.072Z,13.51
2023-05-14T00:11:22.658Z,13.49
2023-05-14T00:13:51.984Z,13.42
2023-05-14T00:16:20.096Z,13.41
2023-05-14T00:18:48.489Z,13.22
2023-05-14T00:21:17.429Z,13.38
2023-05-14T00:23:45.642Z,13.40
2023-05-14T00:26:13.731Z,13.37
2023-05-14T00:28:44.342Z,13.25
2023-05-14T00:31:13.724Z,13.20
2023-05-14T00:33:42.023Z,13.30
2023-05-14T00:36:10.248Z,13.34
2023-05-14T00:38:40.102Z,13.40
2023-05-14T00:41:08.932Z,13.33
2023-05-14T00:43:37.204Z,13.24
2023-05-14T00:46:05.447Z,13.33
2023-05-14T00:48:34.401Z,13.30
2023-05-14T00:51:02.502Z,13.29
2023-05-14T00:53:31.196Z,13.30
2023-05-14T00:55:59.506Z,13.26
2023-05-14T00:58:30.100Z,13.32
2023-05-14T01:00:58.180Z,13.27
2023-05-14T01:03:27.650Z,13.29
2023-05-14T01:06:07.381Z,13.25
2023-05-14T01:09:05.093Z,13.28
2023-05-14T01:11:42.749Z,13.19
2023-05-14T01:14:12.384Z,13.29
2023-05-14T01:16:40.996Z,13.34
2023-05-14T01:19:23.795Z,13.27
2023-05-14T01:21:52.040Z,13.26
2023-05-14T01:24:20.407Z,13.20
2023-05-14T01:26:48.333Z,13.05
2023-05-14T01:29:23.820Z,13.13
2023-05-14T01:31:57.632Z,13.22
2023-05-14T01:34:28.784Z,13.11
2023-05-14T01:36:58.230Z,13.06
2023-05-14T01:39:28.134Z,13.00
2023-05-14T01:41:57.027Z,13.23
2023-05-14T01:44:25.759Z,13.11
2023-05-14T01:46:53.621Z,13.07
2023-05-14T01:49:21.814Z,13.12
2023-05-14T01:51:49.928Z,13.06
2023-05-14T01:54:18.412Z,13.08
2023-05-14T01:56:46.509Z,13.07
2023-05-14T01:59:15.017Z,12.96
2023-05-14T02:01:42.854Z,12.99
2023-05-14T02:04:11.276Z,13.07
2023-05-14T02:06:43.138Z,13.18
2023-05-14T02:09:11.651Z,13.14
2023-05-14T02:11:39.788Z,13.17
2023-05-14T02:14:08.283Z,13.16
2023-05-14T02:16:36.159Z,13.07
2023-05-14T02:19:04.858Z,13.18
2023-05-14T02:21:53.155Z,12.95
2023-05-14T02:24:21.694Z,13.00
2023-05-14T02:26:49.977Z,12.99
2023-05-14T02:29:19.249Z,12.91
2023-05-14T02:31:47.833Z,12.99
2023-05-14T02:34:16.919Z,12.89
2023-05-14T02:36:44.895Z,12.99
2023-05-14T02:39:13.385Z,13.03
2023-05-14T02:41:41.200Z,13.03
2023-05-14T02:44:09.422Z,12.97
2023-05-14T02:46:37.555Z,13.13
2023-05-14T02:49:05.834Z,13.09
2023-05-14T02:51:33.682Z,13.09
2023-05-14T02:54:02.057Z,13.07
2023-05-14T02:56:32.402Z,13.27
2023-05-14T02:59:01.484Z,13.35
2023-05-14T03:01:29.958Z,13.37
2023-05-14T03:03:58.684Z,13.38
2023-05-14T03:06:27.008Z,13.38
2023-05-14T03:08:55.436Z,13.44
2023-05-14T03:11:23.313Z,13.48
2023-05-14T03:13:51.906Z,13.51
2023-05-14T03:16:20.211Z,13.43
2023-05-14T03:18:48.501Z,13.48
2023-05-14T03:21:16.576Z,13.58
2023-05-14T03:23:44.982Z,13.63
2023-05-14T03:26:12.856Z,13.56
2023-05-14T03:28:41.268Z,13.42
2023-05-14T03:31:09.264Z,13.61
2023-05-14T03:33:38.490Z,13.68
2023-05-14T03:36:06.948Z,13.64
2023-05-14T03:38:35.129Z,13.62
2023-05-14T03:41:02.973Z,13.84
2023-05-14T03:43:31.295Z,13.91
2023-05-14T03:45:59.218Z,13.99
2023-05-14T03:48:27.479Z,14.05
2023-05-14T03:50:55.931Z,14.12
2023-05-14T03:53:24.312Z,14.22
2023-05-14T03:55:52.175Z,14.30
2023-05-14T03:58:20.720Z,14.50
2023-05-14T04:00:48.860Z,14.66
2023-05-14T04:03:17.533Z,14.80
2023-05-14T04:05:45.448Z,14.67
2023-05-14T04:08:14.110Z,14.76
2023-05-14T04:10:43.318Z,14.99
2023-05-14T04:13:11.644Z,15.09
2023-05-14T04:15:40.837Z,15.39
2023-05-14T04:18:09.491Z,15.49
2023-05-14T04:20:37.623Z,15.32
2023-05-14T04:23:06.033Z,15.35
2023-05-14T04:25:34.940Z,15.14
2023-05-14T04:28:03.516Z,15.34
2023-05-14T04:30:31.450Z,15.12
2023-05-14T04:33:00.010Z,15.35
2023-05-14T04:35:29.553Z,15.26
2023-05-14T04:37:58.439Z,15.29
2023-05-14T04:40:26.327Z,15.33
2023-05-14T04:42:54.900Z,15.35
2023-05-14T04:45:22.844Z,15.48
2023-05-14T04:47:51.611Z,15.39
2023-05-14T04:50:19.413Z,15.23
2023-05-14T04:52:48.066Z,15.38
2023-05-14T04:55:16.061Z,15.21
2023-05-14T04:57:45.541Z,15.27
2023-05-14T05:00:13.746Z,15.27
2023-05-14T05:02:43.435Z,15.56
2023-05-14T05:05:11.602Z,15.57
2023-05-14T05:07:40.819Z,15.35
2023-05-14T05:10:09.247Z,15.68
2023-05-14T05:12:37.620Z,15.51
2023-05-14T05:15:06.624Z,15.59
2023-05-14T05:17:36.184Z,15.56
2023-05-14T05:20:06.077Z,15.66
2023-05-14T05:22:34.262Z,15.48
2023-05-14T05:25:02.156Z,15.71
2023-05-14T05:27:31.273Z,15.74
2023-05-14T05:29:59.207Z,15.95
2023-05-14T05:32:27.535Z,15.85
2023-05-14T05:34:55.798Z,15.98
2023-05-14T05:37:24.025Z,16.07
2023-05-14T05:39:54.508Z,16.16
2023-05-14T05:42:23.013Z,15.84
2023-05-14T05:44:51.276Z,15.80
2023-05-14T05:47:19.582Z,15.96
2023-05-14T05:49:47.643Z,15.86
2023-05-14T05:52:15.833Z,15.71
2023-05-14T05:54:43.601Z,15.88
2023-05-14T05:57:12.519Z,15.73
2023-05-14T05:59:40.635Z,15.68
2023-05-14T06:02:08.955Z,15.86
2023-05-14T06:04:37.132Z,15.75
2023-05-14T06:07:06.353Z,15.72
2023-05-14T06:09:34.208Z,15.87
2023-05-14T06:12:03.921Z,15.91
2023-05-14T06:14:33.160Z,15.90
2023-05-14T06:17:01.434Z,15.70
2023-05-14T06:19:29.545Z,15.80
2023-05-14T06:21:58.205Z,15.71
2023-05-14T06:24:26.140Z,15.86
2023-05-14T06:26:54.552Z,15.53
2023-05-14T06:29:22.461Z,15.81
2023-05-14T06:31:51.206Z,15.62
2023-05-14T06:34:19.175Z,15.57
2023-05-14T06:36:47.462Z,15.87
2023-05-14T06:39:15.282Z,15.98
2023-05-14T06:41:43.725Z,16.22
2023-05-14T06:44:19.700Z,16.14
2023-05-14T06:46:48.240Z,16.40
2023-05-14T06:49:16.866Z,16.42
2023-05-14T06:51:45.997Z,16.57
2023-05-14T06:54:13.959Z,16.52
2023-05-14T06:56:42.564Z,16.47
2023-05-14T06:59:10.712Z,16.48
2023-05-14T07:01:39.070Z,16.33
2023-05-14T07:04:06.968Z,16.11
2023-05-14T07:06:35.770Z,16.08
2023-05-14T07:09:04.245Z,16.26
2023-05-14T07:11:34.036Z,16.20
2023-05-14T07:14:01.921Z,16.40
2023-05-14T07:16:30.483Z,16.27
2023-05-14T07:18:58.635Z,16.32
2023-05-14T07:21:26.994Z,16.46
2023-05-14T07:23:54.892Z,16.35
2023-05-14T07:26:24.728Z,16.37
2023-05-14T07:28:52.940Z,16.24
2023-05-14T07:31:21.175Z,16.23
2023-05-14T07:33:49.114Z,16.25
2023-05-14T07:36:17.594Z,16.25
2023-05-14T07:38:45.667Z,16.29
2023-05-14T07:41:15.416Z,16.24
2023-05-14T07:43:44.276Z,16.31
2023-05-14T07:46:12.844Z,16.39
2023-05-14T07:48:40.808Z,16.56
2023-05-14T07:51:09.370Z,16.67
2023-05-14T07:53:37.254Z,16.55
2023-05-14T07:56:08.329Z,16.76
2023-05-14T07:58:36.486Z,16.63
2023-05-14T08:01:07.444Z,16.72
2023-05-14T08:03:35.507Z,16.63
2023-05-14T08:06:04.655Z,16.58
2023-05-14T08:08:32.616Z,16.52
2023-05-14T08:11:01.219Z,16.47
2023-05-14T08:13:30.788Z,16.31
2023-05-14T08:15:59.187Z,16.30
2023-05-14T08:18:27.239Z,16.21
2023-05-14T08:20:55.490Z,16.22
2023-05-14T08:23:23.381Z,16.36
2023-05-14T08:25:52.020Z,16.31
2023-05-14T08:28:19.867Z,16.20
2023-05-14T08:30:48.226Z,16.37
2023-05-14T08:33:16.056Z,16.38
2023-05-14T08:35:44.321Z,16.43
2023-05-14T08:38:12.207Z,16.58
2023-05-14T08:40:40.596Z,16.73
2023-05-14T08:43:11.661Z,16.69
2023-05-14T08:45:40.738Z,16.86
2023-05-14T08:48:17.950Z,17.02
2023-05-14T08:50:48.525Z,17.20
2023-05-14T08:53:16.464Z,17.21
2023-05-14T08:55:46.440Z,17.43
2023-05-14T08:58:15.973Z,17.30
2023-05-14T09:00:44.503Z,17.57
2023-05-14T09:03:13.520Z,17.56
2023-05-14T09:05:43.733Z,17.55
2023-05-14T09:08:11.787Z,17.45
2023-05-14T09:10:40.619Z,17.35
2023-05-14T09:13:10.594Z,17.54
2023-05-14T09:15:41.607Z,17.35
2023-05-14T09:18:12.530Z,17.29
2023-05-14T09:20:41.600Z,17.13
2023-05-14T09:23:09.415Z,17.24
2023-05-14T09:25:37.608Z,17.30
2023-05-14T09:28:11.651Z,17.21
2023-05-14T09:30:39.891Z,17.20
2023-05-14T09:33:11.657Z,17.45
2023-05-14T09:35:41.737Z,17.32
2023-05-14T09:38:09.784Z,17.10
2023-05-14T09:40:38.328Z,17.24
2023-05-14T09:43:06.242Z,17.42
2023-05-14T09:45:35.411Z,17.72
2023-05-14T09:48:04.031Z,17.46
2023-05-14T09:50:32.737Z,17.67
2023-05-14T09:53:01.198Z,17.48
2023-05-14T09:55:29.893Z,17.64
2023-05-14T09:57:57.828Z,17.85
2023-05-14T10:00:26.749Z,17.88
2023-05-14T10:02:57.194Z,17.91
2023-05-14T10:05:27.299Z,17.92
2023-05-14T10:08:00.246Z,17.89
2023-05-14T10:10:30.693Z,17.71
2023-05-14T10:13:01.880Z,17.58
2023-05-14T10:15:59.187Z,17.73
2023-05-14T10:18:29.206Z,17.70
2023-05-14T10:21:06.616Z,17.54
2023-05-14T10:23:38.247Z,17.29
2023-05-14T10:26:07.210Z,17.13
2023-05-14T10:28:35.573Z,17.15
2023-05-14T10:31:04.086Z,17.03
2023-05-14T10:33:47.470Z,17.17
2023-05-14T10:36:16.173Z,17.11
2023-05-14T10:38:44.524Z,17.08
2023-05-14T10:41:16.883Z,16.99
2023-05-14T10:43:45.177Z,16.84
2023-05-14T10:46:15.050Z,16.77
2023-05-14T10:48:44.654Z,16.76
2023-05-14T10:51:13.493Z,16.81
2023-05-14T10:53:43.358Z,16.85
2023-05-14T10:56:15.055Z,17.02
2023-05-14T10:58:44.699Z,16.81
2023-05-14T11:01:14.062Z,16.83
2023-05-14T11:03:45.617Z,17.22
2023-05-14T11:06:16.207Z,17.10
2023-05-14T11:08:44.974Z,17.14
2023-05-14T11:11:13.331Z,17.21
2023-05-14T11:13:41.945Z,17.40
2023-05-14T11:18:42.221Z,17.41
2023-05-14T11:21:17.794Z,17.13
2023-05-14T11:23:49.188Z,17.25
2023-05-14T11:26:18.810Z,17.75
2023-05-14T11:28:48.202Z,17.38
2023-05-14T11:31:16.549Z,17.46
2023-05-14T11:34:10.339Z,17.26
2023-05-14T11:36:38.584Z,17.30
2023-05-14T11:39:06.459Z,17.13
2023-05-14T11:41:34.637Z,17.25
2023-05-14T11:44:03.873Z,17.30
2023-05-14T11:46:32.199Z,17.65
2023-05-14T11:49:00.140Z,17.65
2023-05-14T11:51:28.414Z,17.51
2023-05-14T11:53:56.338Z,17.25
2023-05-14T11:56:24.647Z,17.22
2023-05-14T11:58:59.048Z,17.30
2023-05-14T12:01:29.053Z,17.39
2023-05-14T12:03:57.386Z,17.26
2023-05-14T12:06:32.456Z,17.01
2023-05-14T12:09:01.780Z,17.13
2023-05-14T12:11:33.496Z,17.31
2023-05-14T12:14:01.750Z,17.22
2023-05-14T12:16:33.940Z,17.05
2023-05-14T12:19:02.846Z,17.17
2023-05-14T12:21:31.742Z,17.16
2023-05-14T12:24:00.447Z,17.14
2023-05-14T12:26:29.105Z,17.19
2023-05-14T12:29:01.622Z,17.08
2023-05-14T12:31:34.797Z,17.05
2023-05-14T12:34:04.555Z,17.32
2023-05-14T12:36:32.973Z,17.10
2023-05-14T12:39:03.886Z,16.82
2023-05-14T12:41:32.717Z,16.74
2023-05-14T12:44:01.084Z,16.76
2023-05-14T12:46:29.730Z,16.75
2023-05-14T12:48:58.224Z,16.65
2023-05-14T12:51:26.712Z,16.79
2023-05-14T12:53:54.652Z,16.48
2023-05-14T12:56:28.009Z,16.60
2023-05-14T12:58:56.704Z,16.60
2023-05-14T13:01:25.099Z,16.61
2023-05-14T13:03:53.262Z,16.75
2023-05-14T13:06:21.607Z,16.76
2023-05-14T13:08:49.432Z,16.58
2023-05-14T13:11:17.575Z,16.73
2023-05-14T13:13:45.777Z,16.70
2023-05-14T13:16:17.093Z,16.66
2023-05-14T13:18:45.149Z,16.60
2023-05-14T13:21:13.576Z,16.66
2023-05-14T13:23:41.345Z,16.77
2023-05-14T13:26:10.040Z,16.87
2023-05-14T13:28:38.135Z,16.82
2023-05-14T13:31:13.308Z,16.88
2023-05-14T13:33:43.338Z,16.68
2023-05-14T13:36:13.812Z,16.46
2023-05-14T13:38:41.747Z,16.61
2023-05-14T13:41:10.211Z,16.56
2023-05-14T13:43:38.365Z,16.51
2023-05-14T13:46:07.083Z,16.51
2023-05-14T13:48:36.474Z,16.39
2023-05-14T13:51:04.704Z,16.35
2023-05-14T13:53:32.793Z,16.48
2023-05-14T13:56:06.805Z,16.60
2023-05-14T13:58:34.756Z,16.63
2023-05-14T14:01:03.434Z,16.43
2023-05-14T14:03:31.324Z,16.43
2023-05-14T14:05:59.624Z,16.42
2023-05-14T14:08:27.509Z,16.40
2023-05-14T14:10:55.887Z,16.34
2023-05-14T14:13:23.710Z,15.97
2023-05-14T14:15:52.081Z,15.90
2023-05-14T14:18:20.046Z,15.91
2023-05-14T14:20:48.490Z,15.98
2023-05-14T14:23:16.542Z,16.02
2023-05-14T14:25:44.773Z,15.87
2023-05-14T14:28:12.676Z,15.70
2023-05-14T14:30:41.365Z,15.82
2023-05-14T14:33:09.274Z,15.77
2023-05-14T14:35:38.010Z,15.58
2023-05-14T14:38:06.091Z,15.45
2023-05-14T14:40:34.978Z,15.36
2023-05-14T14:43:04.455Z,15.58
2023-05-14T14:45:32.760Z,15.23
2023-05-14T14:48:25.536Z,15.18
2023-05-14T14:50:55.103Z,15.22
2023-05-14T14:53:23.437Z,15.27
2023-05-14T14:55:52.479Z,15.31
2023-05-14T14:58:21.476Z,15.19
2023-05-14T15:00:54.705Z,15.19
2023-05-14T15:03:24.120Z,15.28
2023-05-14T15:05:53.848Z,15.14
2023-05-14T15:08:27.060Z,15.17
2023-05-14T15:10:56.657Z,15.15
2023-05-14T15:13:24.930Z,15.09
2023-05-14T15:15:53.219Z,15.13
2023-05-14T15:18:21.345Z,15.03
2023-05-14T15:20:50.004Z,14.99
2023-05-14T15:23:18.015Z,14.86
2023-05-14T15:25:47.331Z,14.94
2023-05-14T15:28:15.096Z,15.02
2023-05-14T15:30:43.480Z,15.03
2023-05-14T15:33:11.740Z,15.06
2023-05-14T15:35:40.130Z,14.97
2023-05-14T15:38:08.620Z,15.03
2023-05-14T15:40:36.792Z,15.19
2023-05-14T15:43:05.261Z,15.00
2023-05-14T15:45:33.671Z,15.06
2023-05-14T15:48:01.663Z,15.07
2023-05-14T15:50:29.995Z,14.95
2023-05-14T15:52:57.983Z,15.06
2023-05-14T15:55:26.203Z,14.96
2023-05-14T15:57:54.308Z,14.90
2023-05-14T16:00:23.009Z,14.90
2023-05-14T16:02:52.434Z,14.95
2023-05-14T16:05:20.873Z,14.87
2023-05-14T16:07:48.835Z,14.81
2023-05-14T16:10:17.006Z,14.92
2023-05-14T16:12:45.073Z,14.87
2023-05-14T16:15:13.366Z,14.97
2023-05-14T16:17:42.077Z,15.00
2023-05-14T16:20:12.227Z,14.92
2023-05-14T16:22:40.179Z,14.83
2023-05-14T16:25:08.748Z,14.76
2023-05-14T16:27:36.731Z,14.83
2023-05-14T16:30:06.206Z,14.84
2023-05-14T16:32:35.526Z,14.80
2023-05-14T16:35:03.793Z,14.71
2023-05-14T16:37:33.842Z,14.67
2023-05-14T16:40:02.616Z,14.76
2023-05-14T16:42:32.804Z,14.73
2023-05-14T16:45:01.494Z,14.81
2023-05-14T16:47:33.575Z,14.67
2023-05-14T16:50:01.914Z,14.78
2023-05-14T16:52:32.099Z,14.87
2023-05-14T16:55:01.117Z,14.87
2023-05-14T16:57:32.839Z,14.92
2023-05-14T17:00:02.369Z,14.92
2023-05-14T17:02:33.665Z,14.81
2023-05-14T17:05:02.130Z,14.87
2023-05-14T17:07:33.673Z,14.81
2023-05-14T17:10:02.112Z,14.77
2023-05-14T17:12:33.222Z,14.70
2023-05-14T17:15:04.490Z,14.77
2023-05-14T17:17:34.381Z,14.75
2023-05-14T17:20:02.777Z,14.79
2023-05-14T17:22:32.518Z,14.74
2023-05-14T17:25:00.831Z,14.64
2023-05-14T17:27:32.110Z,14.62
2023-05-14T17:30:01.558Z,14.60
2023-05-14T17:32:34.394Z,14.44
2023-05-14T17:35:04.248Z,14.53
2023-05-14T17:37:34.420Z,14.59
2023-05-14T17:40:04.849Z,14.47
2023-05-14T17:42:33.992Z,14.48
2023-05-14T17:45:02.366Z,14.59
2023-05-14T17:47:33.497Z,14.50
2023-05-14T17:50:02.168Z,14.56
2023-05-14T17:52:32.537Z,14.52
2023-05-14T17:55:00.777Z,14.65
2023-05-14T17:57:29.682Z,14.57
2023-05-14T17:59:58.172Z,14.60
2023-05-14T18:02:27.874Z,14.57
2023-05-14T18:04:56.483Z,14.53
2023-05-14T18:07:25.727Z,14.52
2023-05-14T18:09:57.028Z,14.42
2023-05-14T18:12:28.181Z,14.52
2023-05-14T18:14:56.500Z,14.42
2023-05-14T18:17:24.533Z,14.36
2023-05-14T18:19:53.091Z,14.30
2023-05-14T18:22:21.878Z,14.33
2023-05-14T18:24:50.157Z,14.31
2023-05-14T18:27:18.140Z,14.21
2023-05-14T18:29:47.028Z,14.21
2023-05-14T18:32:15.117Z,14.01
2023-05-14T18:34:43.784Z,14.13
2023-05-14T18:37:11.691Z,14.20
2023-05-14T18:39:40.269Z,13.98
2023-05-14T18:42:08.436Z,14.02
2023-05-14T18:44:36.802Z,13.94
2023-05-14T18:47:05.183Z,13.83
2023-05-14T18:49:33.372Z,13.94
2023-05-14T18:52:01.413Z,13.83
2023-05-14T18:54:29.733Z,13.75
2023-05-14T18:56:57.714Z,13.66
2023-05-14T18:59:25.997Z,13.68
2023-05-14T19:01:54.091Z,13.60
2023-05-14T19:04:23.079Z,13.68
2023-05-14T19:06:51.017Z,13.62
2023-05-14T19:09:21.439Z,13.59
2023-05-14T19:11:49.921Z,13.59
2023-05-14T19:14:18.378Z,13.58
2023-05-14T19:16:46.315Z,13.54
2023-05-14T19:19:16.253Z,13.58
2023-05-14T19:21:44.182Z,13.58
2023-05-14T19:24:13.782Z,13.35
2023-05-14T19:26:42.285Z,13.52
2023-05-14T19:29:13.164Z,13.38
2023-05-14T19:31:41.241Z,13.48
2023-05-14T19:34:09.446Z,13.43
2023-05-14T19:36:37.326Z,13.37
2023-05-14T19:39:05.685Z,13.51
2023-05-14T19:41:33.473Z,13.43
2023-05-14T19:44:01.745Z,13.52
2023-05-14T19:46:29.912Z,13.63
2023-05-14T19:48:58.341Z,13.58
2023-05-14T19:51:26.246Z,13.55
2023-05-14T19:53:54.560Z,13.47
2023-05-14T19:56:23.538Z,13.33
2023-05-14T19:58:54.877Z,13.39
2023-05-14T20:01:22.912Z,13.42
2023-05-14T20:03:51.121Z,13.40
2023-05-14T20:06:21.154Z,13.49
2023-05-14T20:08:49.719Z,13.38
2023-05-14T20:11:19.758Z,13.52
2023-05-14T20:13:48.370Z,13.41
2023-05-14T20:16:17.141Z,13.42
2023-05-14T20:18:45.536Z,13.59
2023-05-14T20:21:13.638Z,13.72
2023-05-14T20:23:43.044Z,13.60
2023-05-14T20:26:10.955Z,13.59
2023-05-14T20:28:39.277Z,13.43
2023-05-14T20:31:07.248Z,13.44
2023-05-14T20:33:36.789Z,13.37
2023-05-14T20:36:05.646Z,13.27
2023-05-14T20:38:35.300Z,13.35
2023-05-14T20:41:03.312Z,13.27
2023-05-14T20:43:33.557Z,13.34
2023-05-14T20:46:09.325Z,13.40
2023-05-14T20:48:40.559Z,13.38
2023-05-14T20:51:12.112Z,13.54
2023-05-14T20:53:43.597Z,13.42
2023-05-14T20:56:12.666Z,13.35
2023-05-14T20:58:41.490Z,13.37
2023-05-14T21:01:09.879Z,13.57
2023-05-14T21:03:38.245Z,13.56
2023-05-14T21:06:07.481Z,13.40
2023-05-14T21:08:37.972Z,13.38
2023-05-14T21:11:07.152Z,13.39
2023-05-14T21:13:35.294Z,13.53
2023-05-14T21:16:03.326Z,13.59
2023-05-14T21:18:33.343Z,13.55
2023-05-14T21:21:01.429Z,13.36
2023-05-14T21:23:32.960Z,13.32
2023-05-14T21:26:00.969Z,13.29
2023-05-14T21:28:30.085Z,13.34
2023-05-14T21:30:58.004Z,13.31
2023-05-14T21:33:26.248Z,13.29
2023-05-14T21:35:54.563Z,13.21
2023-05-14T21:38:22.981Z,13.12
2023-05-14T21:40:50.829Z,13.28
2023-05-14T21:43:19.685Z,13.14
2023-05-14T21:45:48.739Z,13.31
2023-05-14T21:48:21.773Z,13.28
2023-05-14T21:50:49.867Z,13.19
2023-05-14T21:53:18.302Z,13.19
2023-05-14T21:55:47.199Z,13.23
2023-05-14T21:58:16.479Z,13.25
2023-05-14T22:00:44.265Z,13.14
2023-05-14T22:03:12.643Z,13.25
2023-05-14T22:05:41.192Z,13.34
2023-05-14T22:08:11.572Z,13.31
2023-05-14T22:10:39.963Z,13.23
2023-05-14T22:13:10.176Z,13.25
2023-05-14T22:15:38.649Z,13.19
2023-05-14T22:18:07.131Z,13.23
2023-05-14T22:20:35.140Z,13.34
2023-05-14T22:23:03.426Z,13.24
2023-05-14T22:25:31.721Z,13.26
2023-05-14T22:28:00.097Z,13.32
2023-05-14T22:30:27.957Z,13.23
2023-05-14T22:32:56.260Z,13.30
2023-05-14T22:35:24.444Z,13.32
2023-05-14T22:37:52.890Z,13.33
2023-05-14T22:40:20.942Z,13.38
2023-05-14T22:42:51.957Z,13.22
2023-05-14T22:45:20.204Z,13.46
2023-05-14T22:47:52.044Z,13.37
2023-05-14T22:50:20.108Z,13.47
2023-05-14T22:52:48.321Z,13.51
2023-05-14T22:55:16.240Z,13.51
2023-05-14T22:57:44.634Z,13.55
2023-05-14T23:00:13.550Z,13.50
2023-05-14T23:02:42.025Z,13.28
2023-05-14T23:05:10.341Z,13.43
2023-05-14T23:07:39.055Z,13.34
2023-05-14T23:10:22.488Z,13.45
2023-05-14T23:12:54.926Z,13.43
2023-05-14T23:15:23.075Z,13.21
2023-05-14T23:17:51.615Z,13.19
2023-05-14T23:20:19.541Z,13.13
2023-05-14T23:22:48.170Z,13.12
2023-05-14T23:25:16.121Z,13.08
2023-05-14T23:27:44.315Z,13.04
2023-05-14T23:30:12.654Z,13.12
2023-05-14T23:32:40.908Z,12.98
2023-05-14T23:35:10.694Z,12.92
2023-05-14T23:37:42.886Z,12.99
2023-05-14T23:40:11.370Z,12.91
2023-05-14T23:42:39.538Z,13.02
2023-05-14T23:45:08.023Z,13.03
2023-05-14T23:47:36.600Z,12.91
2023-05-14T23:50:05.070Z,13.03
2023-05-14T23:52:33.908Z,13.04
2023-05-14T23:55:02.013Z,12.95
2023-05-14T23:57:32.452Z,12.93
